EJU16TM LEMH-LIMC
Flight info
| Callsign | EJU16TM |
|---|---|
| Flight time | 1h 8m |
| Altitude | 34000 |
| Route | ISTER UN851 LUNOR DCT NIVDA DCT OMEDA DCT RAPUR DCT TORTU DCT ANAKI P860 DEVOX |
| Aircraft | A319/M-SDE2E3FGIJ1RWXYZ/LB1 |
Departure
| Time | 2026-04-18 10:04 |
|---|---|
| Airport | Menorca Airport (LEMH) |
Arrival
| Time | 2026-04-18 11:13 |
|---|---|
| Airport | Milan Malpensa International Airport (LIMC) |
| Time | Latitude | Longitude | Altitude | Speed | Heading |
|---|---|---|---|---|---|
| 2026-04-18 09:37 | 39.86425 | 4.22390 | 287 ft | 0 kts | 99° |
| 2026-04-18 09:56 | 39.86427 | 4.22380 | 286 ft | 4 kts | 99° |
| 2026-04-18 09:56 | 39.86431 | 4.22346 | 287 ft | 4 kts | 98° |
| 2026-04-18 09:57 | 39.86431 | 4.22315 | 288 ft | 4 kts | 47° |
| 2026-04-18 09:57 | 39.86416 | 4.22306 | 288 ft | 4 kts | 9° |
| 2026-04-18 09:57 | 39.86405 | 4.22304 | 288 ft | 0 kts | 9° |
| 2026-04-18 10:00 | 39.86423 | 4.22308 | 291 ft | 5 kts | 9° |
| 2026-04-18 10:00 | 39.86471 | 4.22318 | 288 ft | 10 kts | 9° |
| 2026-04-18 10:00 | 39.86554 | 4.22336 | 291 ft | 14 kts | 9° |
| 2026-04-18 10:00 | 39.86655 | 4.22357 | 290 ft | 15 kts | 8° |
| 2026-04-18 10:01 | 39.86752 | 4.22376 | 292 ft | 14 kts | 9° |
| 2026-04-18 10:01 | 39.86847 | 4.22396 | 296 ft | 13 kts | 9° |
| 2026-04-18 10:01 | 39.86914 | 4.22366 | 296 ft | 10 kts | 291° |
| 2026-04-18 10:01 | 39.86931 | 4.22269 | 301 ft | 12 kts | 300° |
| 2026-04-18 10:02 | 39.87012 | 4.22258 | 302 ft | 14 kts | 9° |
| 2026-04-18 10:02 | 39.87114 | 4.22279 | 306 ft | 16 kts | 9° |
| 2026-04-18 10:02 | 39.87234 | 4.22304 | 310 ft | 18 kts | 9° |
| 2026-04-18 10:02 | 39.87349 | 4.22327 | 311 ft | 15 kts | 4° |
| 2026-04-18 10:03 | 39.87393 | 4.22232 | 312 ft | 15 kts | 277° |
| 2026-04-18 10:03 | 39.87374 | 4.22114 | 310 ft | 6 kts | 251° |
| 2026-04-18 10:03 | 39.87336 | 4.22086 | 310 ft | 8 kts | 189° |
| 2026-04-18 10:03 | 39.87221 | 4.22062 | 307 ft | 42 kts | 189° |
| 2026-04-18 10:04 | 39.86672 | 4.21948 | 303 ft | 114 kts | 189° |
| 2026-04-18 10:04 | 39.85697 | 4.21740 | 387 ft | 159 kts | 193° |
| 2026-04-18 10:04 | 39.84622 | 4.21519 | 1022 ft | 156 kts | 193° |
| 2026-04-18 10:04 | 39.83542 | 4.21290 | 1652 ft | 161 kts | 193° |
| 2026-04-18 10:05 | 39.82361 | 4.21034 | 2063 ft | 183 kts | 193° |
| 2026-04-18 10:05 | 39.81026 | 4.20745 | 2411 ft | 206 kts | 192° |
| 2026-04-18 10:05 | 39.79527 | 4.20423 | 2739 ft | 231 kts | 191° |
| 2026-04-18 10:05 | 39.77859 | 4.20066 | 3190 ft | 255 kts | 190° |
| 2026-04-18 10:06 | 39.76025 | 4.20135 | 3761 ft | 275 kts | 161° |
| 2026-04-18 10:06 | 39.74468 | 4.21550 | 4594 ft | 279 kts | 125° |
| 2026-04-18 10:06 | 39.73772 | 4.23853 | 5492 ft | 276 kts | 91° |
| 2026-04-18 10:06 | 39.73905 | 4.26310 | 6443 ft | 273 kts | 71° |
| 2026-04-18 10:07 | 39.74726 | 4.28493 | 7337 ft | 269 kts | 48° |
| 2026-04-18 10:07 | 39.76051 | 4.30209 | 8242 ft | 270 kts | 39° |
| 2026-04-18 10:07 | 39.77443 | 4.31867 | 9146 ft | 274 kts | 39° |
| 2026-04-18 10:07 | 39.78861 | 4.33547 | 10039 ft | 278 kts | 40° |
| 2026-04-18 10:08 | 39.80320 | 4.35279 | 10593 ft | 294 kts | 40° |
| 2026-04-18 10:08 | 39.81867 | 4.37116 | 10872 ft | 317 kts | 40° |
| 2026-04-18 10:08 | 39.83558 | 4.39128 | 11102 ft | 341 kts | 41° |
| 2026-04-18 10:08 | 39.85342 | 4.41263 | 11507 ft | 355 kts | 41° |
| 2026-04-18 10:09 | 39.87173 | 4.43460 | 12172 ft | 360 kts | 41° |
| 2026-04-18 10:09 | 39.89020 | 4.45681 | 12893 ft | 364 kts | 41° |
| 2026-04-18 10:09 | 39.90890 | 4.47930 | 13622 ft | 367 kts | 41° |
| 2026-04-18 10:09 | 39.92775 | 4.50194 | 14295 ft | 371 kts | 41° |
| 2026-04-18 10:10 | 39.94683 | 4.52484 | 14932 ft | 374 kts | 41° |
| 2026-04-18 10:10 | 39.96603 | 4.54788 | 15580 ft | 377 kts | 41° |
| 2026-04-18 10:10 | 39.98541 | 4.57115 | 16215 ft | 380 kts | 41° |
| 2026-04-18 10:10 | 39.99857 | 4.58698 | 16639 ft | 383 kts | 41° |
| 2026-04-18 10:11 | 40.01823 | 4.61065 | 17229 ft | 387 kts | 41° |
| 2026-04-18 10:11 | 40.03813 | 4.63461 | 17850 ft | 390 kts | 41° |
| 2026-04-18 10:11 | 40.05762 | 4.65946 | 18460 ft | 395 kts | 46° |
| 2026-04-18 10:11 | 40.07420 | 4.68836 | 18977 ft | 400 kts | 56° |
| 2026-04-18 10:12 | 40.08826 | 4.71993 | 19468 ft | 404 kts | 58° |
| 2026-04-18 10:12 | 40.10243 | 4.75190 | 19951 ft | 408 kts | 58° |
| 2026-04-18 10:12 | 40.11672 | 4.78406 | 20436 ft | 412 kts | 58° |
| 2026-04-18 10:12 | 40.13117 | 4.81657 | 20898 ft | 415 kts | 58° |
| 2026-04-18 10:13 | 40.14567 | 4.84933 | 21357 ft | 419 kts | 58° |
| 2026-04-18 10:13 | 40.16028 | 4.88246 | 21811 ft | 422 kts | 58° |
| 2026-04-18 10:13 | 40.17494 | 4.91580 | 22263 ft | 425 kts | 58° |
| 2026-04-18 10:13 | 40.18975 | 4.94948 | 22691 ft | 428 kts | 58° |
| 2026-04-18 10:14 | 40.20462 | 4.98335 | 23144 ft | 431 kts | 58° |
| 2026-04-18 10:14 | 40.21961 | 5.01751 | 23581 ft | 434 kts | 58° |
| 2026-04-18 10:14 | 40.23468 | 5.05181 | 23955 ft | 437 kts | 58° |
| 2026-04-18 10:14 | 40.24965 | 5.08598 | 24300 ft | 439 kts | 58° |
| 2026-04-18 10:15 | 40.26509 | 5.12123 | 24654 ft | 442 kts | 58° |
| 2026-04-18 10:15 | 40.28025 | 5.15584 | 24981 ft | 445 kts | 58° |
| 2026-04-18 10:15 | 40.29566 | 5.19107 | 25318 ft | 448 kts | 58° |
| 2026-04-18 10:15 | 40.31140 | 5.22708 | 25661 ft | 450 kts | 58° |
| 2026-04-18 10:16 | 40.32675 | 5.26229 | 25965 ft | 453 kts | 58° |
| 2026-04-18 10:16 | 40.34259 | 5.29879 | 26291 ft | 455 kts | 58° |
| 2026-04-18 10:16 | 40.35805 | 5.33444 | 26608 ft | 458 kts | 58° |
| 2026-04-18 10:16 | 40.37389 | 5.37070 | 26914 ft | 459 kts | 56° |
| 2026-04-18 10:17 | 40.39231 | 5.40489 | 27221 ft | 459 kts | 47° |
| 2026-04-18 10:17 | 40.41400 | 5.43546 | 27517 ft | 459 kts | 43° |
| 2026-04-18 10:17 | 40.43649 | 5.46540 | 27812 ft | 461 kts | 43° |
| 2026-04-18 10:17 | 40.45898 | 5.49548 | 28098 ft | 463 kts | 43° |
| 2026-04-18 10:18 | 40.48159 | 5.52586 | 28381 ft | 465 kts | 43° |
| 2026-04-18 10:18 | 40.50414 | 5.55626 | 28795 ft | 465 kts | 43° |
| 2026-04-18 10:18 | 40.52669 | 5.58670 | 29212 ft | 464 kts | 43° |
| 2026-04-18 10:18 | 40.54915 | 5.61705 | 29630 ft | 463 kts | 43° |
| 2026-04-18 10:19 | 40.57164 | 5.64742 | 30051 ft | 463 kts | 43° |
| 2026-04-18 10:19 | 40.59406 | 5.67772 | 30438 ft | 462 kts | 43° |
| 2026-04-18 10:19 | 40.61648 | 5.70807 | 30796 ft | 462 kts | 43° |
| 2026-04-18 10:19 | 40.63878 | 5.73834 | 31198 ft | 460 kts | 43° |
| 2026-04-18 10:20 | 40.66107 | 5.76858 | 31586 ft | 459 kts | 43° |
| 2026-04-18 10:20 | 40.68328 | 5.79866 | 31964 ft | 458 kts | 43° |
| 2026-04-18 10:20 | 40.70549 | 5.82875 | 32350 ft | 457 kts | 43° |
| 2026-04-18 10:20 | 40.72762 | 5.85875 | 32729 ft | 456 kts | 43° |
| 2026-04-18 10:21 | 40.74973 | 5.88879 | 33112 ft | 456 kts | 43° |
| 2026-04-18 10:21 | 40.77174 | 5.91875 | 33503 ft | 455 kts | 43° |
| 2026-04-18 10:21 | 40.79375 | 5.94878 | 33886 ft | 454 kts | 43° |
| 2026-04-18 10:21 | 40.81567 | 5.97876 | 34134 ft | 454 kts | 43° |
| 2026-04-18 10:22 | 40.83765 | 6.00884 | 34170 ft | 455 kts | 43° |
| 2026-04-18 10:22 | 40.88133 | 6.06850 | 34169 ft | 455 kts | 43° |
| 2026-04-18 10:23 | 40.92550 | 6.12892 | 34168 ft | 454 kts | 43° |
| 2026-04-18 10:23 | 40.96927 | 6.18907 | 34169 ft | 454 kts | 43° |
| 2026-04-18 10:24 | 41.01268 | 6.24900 | 34163 ft | 454 kts | 43° |
| 2026-04-18 10:24 | 41.05648 | 6.30944 | 34164 ft | 454 kts | 43° |
| 2026-04-18 10:25 | 41.10026 | 6.36981 | 34165 ft | 454 kts | 43° |
| 2026-04-18 10:25 | 41.14396 | 6.43038 | 34165 ft | 454 kts | 43° |
| 2026-04-18 10:26 | 41.18761 | 6.49102 | 34179 ft | 454 kts | 43° |
| 2026-04-18 10:26 | 41.23125 | 6.55175 | 34178 ft | 454 kts | 43° |
| 2026-04-18 10:27 | 41.27363 | 6.61409 | 34174 ft | 455 kts | 47° |
| 2026-04-18 10:27 | 41.31371 | 6.67940 | 34173 ft | 456 kts | 49° |
| 2026-04-18 10:28 | 41.35335 | 6.74528 | 34177 ft | 456 kts | 48° |
| 2026-04-18 10:28 | 41.39345 | 6.81069 | 34179 ft | 456 kts | 47° |
| 2026-04-18 10:29 | 41.43383 | 6.87579 | 34182 ft | 456 kts | 47° |
| 2026-04-18 10:29 | 41.47417 | 6.94091 | 34179 ft | 455 kts | 47° |
| 2026-04-18 10:30 | 41.51436 | 7.00621 | 34175 ft | 455 kts | 48° |
| 2026-04-18 10:30 | 41.55446 | 7.07157 | 34176 ft | 455 kts | 48° |
| 2026-04-18 10:31 | 41.59447 | 7.13704 | 34172 ft | 455 kts | 48° |
| 2026-04-18 10:31 | 41.63445 | 7.20260 | 34168 ft | 455 kts | 48° |
| 2026-04-18 10:32 | 41.67449 | 7.26813 | 34164 ft | 455 kts | 48° |
| 2026-04-18 10:32 | 41.71446 | 7.33371 | 34163 ft | 455 kts | 48° |
| 2026-04-18 10:33 | 41.75440 | 7.39931 | 34158 ft | 455 kts | 48° |
| 2026-04-18 10:33 | 41.79424 | 7.46508 | 34151 ft | 455 kts | 48° |
| 2026-04-18 10:34 | 41.83405 | 7.53105 | 34154 ft | 455 kts | 48° |
| 2026-04-18 10:34 | 41.87358 | 7.59658 | 34162 ft | 455 kts | 49° |
| 2026-04-18 10:35 | 41.91328 | 7.66254 | 34155 ft | 454 kts | 49° |
| 2026-04-18 10:35 | 41.95294 | 7.72855 | 34156 ft | 454 kts | 49° |
| 2026-04-18 10:36 | 41.99254 | 7.79469 | 34149 ft | 454 kts | 49° |
| 2026-04-18 10:36 | 42.03214 | 7.86095 | 34147 ft | 455 kts | 49° |
| 2026-04-18 10:37 | 42.07172 | 7.92732 | 34149 ft | 455 kts | 49° |
| 2026-04-18 10:37 | 42.11129 | 7.99368 | 34158 ft | 454 kts | 49° |
| 2026-04-18 10:38 | 42.15084 | 8.06008 | 34163 ft | 454 kts | 49° |
| 2026-04-18 10:38 | 42.19022 | 8.12661 | 34159 ft | 454 kts | 49° |
| 2026-04-18 10:39 | 42.22928 | 8.19275 | 34153 ft | 454 kts | 49° |
| 2026-04-18 10:39 | 42.26862 | 8.25938 | 34149 ft | 454 kts | 49° |
| 2026-04-18 10:40 | 42.30856 | 8.32526 | 34148 ft | 452 kts | 43° |
| 2026-04-18 10:40 | 42.35795 | 8.37616 | 34153 ft | 445 kts | 25° |
| 2026-04-18 10:41 | 42.41442 | 8.40917 | 34154 ft | 441 kts | 20° |
| 2026-04-18 10:41 | 42.47120 | 8.44070 | 34147 ft | 441 kts | 20° |
| 2026-04-18 10:42 | 42.52793 | 8.47233 | 34144 ft | 441 kts | 20° |
| 2026-04-18 10:42 | 42.58464 | 8.50396 | 34137 ft | 441 kts | 20° |
| 2026-04-18 10:43 | 42.64137 | 8.53554 | 34136 ft | 441 kts | 20° |
| 2026-04-18 10:43 | 42.69805 | 8.56726 | 34135 ft | 440 kts | 20° |
| 2026-04-18 10:44 | 42.75474 | 8.59896 | 34125 ft | 441 kts | 20° |
| 2026-04-18 10:44 | 42.81153 | 8.63084 | 34117 ft | 442 kts | 20° |
| 2026-04-18 10:45 | 42.86843 | 8.66285 | 34119 ft | 443 kts | 20° |
| 2026-04-18 10:45 | 42.92534 | 8.69497 | 34126 ft | 443 kts | 20° |
| 2026-04-18 10:46 | 42.98245 | 8.72726 | 34141 ft | 444 kts | 20° |
| 2026-04-18 10:46 | 43.04008 | 8.75657 | 34157 ft | 441 kts | 9° |
| 2026-04-18 10:47 | 43.10094 | 8.76074 | 34160 ft | 438 kts | 359° |
| 2026-04-18 10:47 | 43.16192 | 8.76168 | 34158 ft | 438 kts | 359° |
| 2026-04-18 10:48 | 43.22288 | 8.76250 | 34155 ft | 438 kts | 359° |
| 2026-04-18 10:48 | 43.28391 | 8.76344 | 34151 ft | 438 kts | 359° |
| 2026-04-18 10:49 | 43.34485 | 8.76444 | 34151 ft | 438 kts | 359° |
| 2026-04-18 10:49 | 43.40590 | 8.76545 | 34146 ft | 439 kts | 359° |
| 2026-04-18 10:50 | 43.46654 | 8.76641 | 34147 ft | 439 kts | 359° |
| 2026-04-18 10:50 | 43.52768 | 8.76754 | 34154 ft | 440 kts | 359° |
| 2026-04-18 10:51 | 43.58882 | 8.76861 | 34142 ft | 440 kts | 359° |
| 2026-04-18 10:51 | 43.65016 | 8.76965 | 34143 ft | 441 kts | 359° |
| 2026-04-18 10:52 | 43.71159 | 8.77060 | 34147 ft | 442 kts | 359° |
| 2026-04-18 10:52 | 43.77309 | 8.77161 | 34145 ft | 442 kts | 359° |
| 2026-04-18 10:53 | 43.83461 | 8.77275 | 34146 ft | 442 kts | 359° |
| 2026-04-18 10:53 | 43.89614 | 8.77381 | 34152 ft | 442 kts | 359° |
| 2026-04-18 10:54 | 43.95768 | 8.77487 | 34144 ft | 442 kts | 359° |
| 2026-04-18 10:54 | 44.01931 | 8.77593 | 34139 ft | 442 kts | 359° |
| 2026-04-18 10:55 | 44.08084 | 8.77702 | 34133 ft | 443 kts | 359° |
| 2026-04-18 10:55 | 44.11126 | 8.77757 | 33872 ft | 444 kts | 359° |
| 2026-04-18 10:55 | 44.14220 | 8.77815 | 33602 ft | 444 kts | 359° |
| 2026-04-18 10:55 | 44.17357 | 8.77873 | 33329 ft | 445 kts | 359° |
| 2026-04-18 10:56 | 44.20457 | 8.77926 | 33062 ft | 446 kts | 359° |
| 2026-04-18 10:56 | 44.23520 | 8.77978 | 32328 ft | 448 kts | 359° |
| 2026-04-18 10:56 | 44.26662 | 8.78027 | 31185 ft | 455 kts | 359° |
| 2026-04-18 10:56 | 44.29833 | 8.78075 | 30156 ft | 457 kts | 359° |
| 2026-04-18 10:57 | 44.33032 | 8.78129 | 28859 ft | 462 kts | 359° |
| 2026-04-18 10:57 | 44.36255 | 8.78185 | 27697 ft | 463 kts | 359° |
| 2026-04-18 10:57 | 44.39481 | 8.78241 | 26462 ft | 465 kts | 360° |
| 2026-04-18 10:57 | 44.42724 | 8.78300 | 25249 ft | 466 kts | 360° |
| 2026-04-18 10:58 | 44.45971 | 8.78359 | 24082 ft | 466 kts | 0° |
| 2026-04-18 10:58 | 44.49191 | 8.78420 | 22973 ft | 460 kts | 0° |
| 2026-04-18 10:58 | 44.52364 | 8.78483 | 21874 ft | 452 kts | 0° |
| 2026-04-18 10:58 | 44.55491 | 8.78543 | 20819 ft | 448 kts | 0° |
| 2026-04-18 10:59 | 44.58593 | 8.78597 | 19957 ft | 442 kts | 360° |
| 2026-04-18 10:59 | 44.61652 | 8.78651 | 19099 ft | 438 kts | 360° |
| 2026-04-18 10:59 | 44.63670 | 8.78686 | 18535 ft | 436 kts | 360° |
| 2026-04-18 10:59 | 44.66720 | 8.78739 | 17622 ft | 432 kts | 360° |
| 2026-04-18 11:00 | 44.69709 | 8.78791 | 16839 ft | 426 kts | 0° |
| 2026-04-18 11:00 | 44.72615 | 8.78841 | 16081 ft | 420 kts | 0° |
| 2026-04-18 11:00 | 44.75520 | 8.78892 | 15332 ft | 416 kts | 0° |
| 2026-04-18 11:00 | 44.78399 | 8.78938 | 14615 ft | 411 kts | 0° |
| 2026-04-18 11:01 | 44.81243 | 8.78984 | 13922 ft | 407 kts | 0° |
| 2026-04-18 11:01 | 44.84067 | 8.79031 | 13187 ft | 403 kts | 0° |
| 2026-04-18 11:01 | 44.86854 | 8.79081 | 12514 ft | 399 kts | 0° |
| 2026-04-18 11:02 | 44.92321 | 8.79188 | 11422 ft | 382 kts | 0° |
| 2026-04-18 11:02 | 44.94913 | 8.79237 | 11298 ft | 362 kts | 0° |
| 2026-04-18 11:02 | 44.97368 | 8.79281 | 11176 ft | 344 kts | 360° |
| 2026-04-18 11:02 | 44.99711 | 8.79326 | 11052 ft | 329 kts | 360° |
| 2026-04-18 11:03 | 45.01946 | 8.79372 | 10971 ft | 315 kts | 0° |
| 2026-04-18 11:03 | 45.04098 | 8.79418 | 10853 ft | 303 kts | 360° |
| 2026-04-18 11:03 | 45.06167 | 8.79460 | 10718 ft | 293 kts | 360° |
| 2026-04-18 11:03 | 45.08178 | 8.79497 | 10557 ft | 287 kts | 360° |
| 2026-04-18 11:04 | 45.10173 | 8.79531 | 10485 ft | 286 kts | 359° |
| 2026-04-18 11:04 | 45.12163 | 8.79563 | 10373 ft | 286 kts | 359° |
| 2026-04-18 11:04 | 45.14146 | 8.79596 | 10251 ft | 286 kts | 359° |
| 2026-04-18 11:04 | 45.16136 | 8.79629 | 9966 ft | 287 kts | 359° |
| 2026-04-18 11:05 | 45.18157 | 8.79662 | 9447 ft | 289 kts | 359° |
| 2026-04-18 11:05 | 45.20158 | 8.79695 | 8995 ft | 286 kts | 360° |
| 2026-04-18 11:05 | 45.22143 | 8.79731 | 8512 ft | 284 kts | 360° |
| 2026-04-18 11:05 | 45.24113 | 8.79770 | 8012 ft | 282 kts | 360° |
| 2026-04-18 11:06 | 45.26072 | 8.79808 | 7417 ft | 282 kts | 360° |
| 2026-04-18 11:06 | 45.28037 | 8.79846 | 6722 ft | 282 kts | 360° |
| 2026-04-18 11:06 | 45.29936 | 8.79886 | 6293 ft | 272 kts | 360° |
| 2026-04-18 11:06 | 45.31812 | 8.79921 | 5765 ft | 270 kts | 360° |
| 2026-04-18 11:07 | 45.33676 | 8.79955 | 5490 ft | 263 kts | 0° |
| 2026-04-18 11:07 | 45.35461 | 8.79987 | 5363 ft | 251 kts | 0° |
| 2026-04-18 11:07 | 45.37163 | 8.79974 | 5241 ft | 238 kts | 356° |
| 2026-04-18 11:07 | 45.38775 | 8.79864 | 5133 ft | 228 kts | 355° |
| 2026-04-18 11:08 | 45.40340 | 8.79576 | 4875 ft | 225 kts | 350° |
| 2026-04-18 11:08 | 45.41874 | 8.79171 | 4585 ft | 224 kts | 349° |
| 2026-04-18 11:08 | 45.43388 | 8.78753 | 4293 ft | 220 kts | 349° |
| 2026-04-18 11:08 | 45.44882 | 8.78342 | 4001 ft | 217 kts | 349° |
| 2026-04-18 11:09 | 45.46359 | 8.77937 | 3716 ft | 216 kts | 349° |
| 2026-04-18 11:09 | 45.47823 | 8.77535 | 3438 ft | 212 kts | 349° |
| 2026-04-18 11:09 | 45.49261 | 8.77140 | 3160 ft | 209 kts | 349° |
| 2026-04-18 11:09 | 45.50690 | 8.76748 | 2885 ft | 208 kts | 349° |
| 2026-04-18 11:10 | 45.52111 | 8.76357 | 2642 ft | 203 kts | 349° |
| 2026-04-18 11:10 | 45.53481 | 8.75980 | 2344 ft | 198 kts | 349° |
| 2026-04-18 11:10 | 45.54804 | 8.75616 | 2073 ft | 189 kts | 349° |
| 2026-04-18 11:10 | 45.56040 | 8.75276 | 1843 ft | 172 kts | 349° |
| 2026-04-18 11:11 | 45.57145 | 8.74972 | 1627 ft | 153 kts | 349° |
| 2026-04-18 11:11 | 45.58154 | 8.74694 | 1430 ft | 145 kts | 349° |
| 2026-04-18 11:11 | 45.59125 | 8.74426 | 1244 ft | 140 kts | 349° |
| 2026-04-18 11:11 | 45.60063 | 8.74167 | 1054 ft | 139 kts | 351° |
| 2026-04-18 11:12 | 45.61012 | 8.73905 | 897 ft | 139 kts | 351° |
| 2026-04-18 11:12 | 45.61957 | 8.73640 | 751 ft | 136 kts | 351° |
| 2026-04-18 11:12 | 45.62752 | 8.73428 | 746 ft | 93 kts | 349° |
| 2026-04-18 11:12 | 45.63320 | 8.73272 | 744 ft | 76 kts | 349° |
| 2026-04-18 11:13 | 45.63738 | 8.73155 | 748 ft | 48 kts | 349° |
| 2026-04-18 11:13 | 45.64032 | 8.73071 | 746 ft | 39 kts | 348° |
| 2026-04-18 11:13 | 45.64225 | 8.73015 | 744 ft | 23 kts | 343° |
| 2026-04-18 11:13 | 45.64324 | 8.72872 | 750 ft | 19 kts | 304° |
| 2026-04-18 11:14 | 45.64388 | 8.72739 | 750 ft | 14 kts | 304° |
| 2026-04-18 11:14 | 45.64399 | 8.72716 | 748 ft | 1 kts | 304° |
| 2026-04-18 11:14 | 45.64403 | 8.72707 | 752 ft | 2 kts | 304° |
| 2026-04-18 11:14 | 45.64411 | 8.72691 | 749 ft | 2 kts | 304° |
| 2026-04-18 11:15 | 45.64429 | 8.72670 | 749 ft | 5 kts | 335° |
| 2026-04-18 11:15 | 45.64482 | 8.72659 | 752 ft | 10 kts | 352° |
| 2026-04-18 11:15 | 45.64565 | 8.72636 | 750 ft | 13 kts | 349° |
| 2026-04-18 11:15 | 45.64654 | 8.72611 | 750 ft | 13 kts | 349° |
| 2026-04-18 11:16 | 45.64729 | 8.72590 | 752 ft | 6 kts | 348° |
| 2026-04-18 11:16 | 45.64744 | 8.72549 | 751 ft | 6 kts | 255° |
| 2026-04-18 11:16 | 45.64736 | 8.72491 | 752 ft | 4 kts | 259° |
| 2026-04-18 11:16 | 45.64734 | 8.72474 | 752 ft | 0 kts | 259° |
| 2026-04-18 11:20 | 45.64734 | 8.72473 | 752 ft | 0 kts | 259° |